Time;durP1;ratioP1;P1;durP2;ratioP2;P2;SDS_P1;SDS_P2;PMS_P1;PMS_P2;Temp;Humidity;BMP_temperature;BMP_pressure;BME280_temperature;BME280_humidity;BME280_pressure;Samples;Min_cycle;Max_cycle;Signal;HPM_P1;HPM_P2
2022/02/21 00:00:19;;;;;;;9.50;4.90;;;;;;;3.59;68.47;98762.73;109455;1272;138086;-58
2022/02/21 00:02:48;;;;;;;9.00;4.70;;;;;;;3.58;68.54;98761.16;109491;1273;23517;-58
2022/02/21 00:05:16;;;;;;;8.00;4.80;;;;;;;3.59;68.61;98766.49;109393;1274;138941;-58
2022/02/21 00:07:46;;;;;;;7.80;4.20;;;;;;;3.58;68.89;98762.48;109499;1273;22271;-58
2022/02/21 00:10:34;;;;;;;9.10;4.20;;;;;;;3.58;69.00;98759.84;109406;1273;138765;-58
2022/02/21 00:13:02;;;;;;;8.40;3.80;;;;;;;3.57;69.02;98764.23;109512;1273;22462;-58
2022/02/21 00:15:30;;;;;;;5.70;3.80;;;;;;;3.56;69.33;98765.66;109457;1273;22468;-58
2022/02/21 00:17:58;;;;;;;8.60;4.10;;;;;;;3.55;69.44;98769.61;109433;1273;138849;-58
2022/02/21 00:20:27;;;;;;;8.30;3.90;;;;;;;3.51;69.45;98761.67;109532;1273;22586;-58
2022/02/21 00:23:15;;;;;;;8.40;3.30;;;;;;;3.53;69.82;98765.70;109398;1273;138878;-58
2022/02/21 00:25:44;;;;;;;7.10;3.50;;;;;;;3.53;69.85;98772.04;109497;1273;22633;-58
2022/02/21 00:28:13;;;;;;;7.40;3.60;;;;;;;3.52;69.98;98768.69;109548;1273;23310;-58
2022/02/21 00:30:41;;;;;;;10.80;4.00;;;;;;;3.53;70.25;98771.18;109410;1273;137416;-58
2022/02/21 00:33:09;;;;;;;5.80;3.20;;;;;;;3.51;70.13;98764.94;109515;1273;22435;-58
2022/02/21 00:35:39;;;;;;;4.90;3.60;;;;;;;3.49;70.15;98762.56;109398;1273;138015;-58
2022/02/21 00:38:07;;;;;;;10.30;4.20;;;;;;;3.46;70.15;98764.17;109497;1273;23546;-58
2022/02/21 00:40:35;;;;;;;5.90;3.70;;;;;;;3.43;70.29;98763.02;109403;1272;138734;-58
2022/02/21 00:43:03;;;;;;;6.70;4.10;;;;;;;3.39;70.38;98760.45;109536;1272;22520;-58
2022/02/21 00:45:31;;;;;;;7.60;3.50;;;;;;;3.32;70.34;98750.73;109511;1273;22905;-58
2022/02/21 00:47:59;;;;;;;8.00;4.00;;;;;;;3.30;70.61;98754.39;109258;1273;137917;-58
2022/02/21 00:50:27;;;;;;;8.10;4.20;;;;;;;3.25;70.59;98755.94;109479;1274;23208;-58
2022/02/21 00:52:55;;;;;;;10.40;4.40;;;;;;;3.20;70.69;98757.63;109457;1273;138647;-58
2022/02/21 00:55:24;;;;;;;7.00;3.60;;;;;;;3.12;70.90;98751.29;109528;1273;22446;-58
2022/02/21 00:57:53;;;;;;;8.30;4.20;;;;;;;3.09;70.99;98756.29;109546;1273;22469;-58
2022/02/21 01:00:20;;;;;;;6.50;3.50;;;;;;;3.03;71.30;98751.73;109402;1274;137354;-58
2022/02/21 01:02:48;;;;;;;9.40;4.30;;;;;;;2.98;71.37;98756.40;109506;1272;22454;-58
2022/02/21 01:05:16;;;;;;;7.30;3.30;;;;;;;2.93;71.62;98758.08;109426;1272;139155;-57
2022/02/21 01:07:44;;;;;;;8.40;4.40;;;;;;;2.89;71.91;98758.02;109492;1272;22516;-58
2022/02/21 01:10:12;;;;;;;8.60;4.30;;;;;;;2.85;72.05;98759.06;109446;1274;22454;-58
2022/02/21 01:12:40;;;;;;;8.40;4.60;;;;;;;2.81;72.33;98764.90;109403;1273;137733;-58
2022/02/21 01:15:09;;;;;;;11.80;5.60;;;;;;;2.78;72.49;98762.66;109520;1273;22449;-58
2022/02/21 01:17:37;;;;;;;11.60;5.50;;;;;;;2.75;72.91;98764.23;109293;1274;138626;-58
2022/02/21 01:20:06;;;;;;;18.70;7.00;;;;;;;2.71;73.00;98760.48;109509;1273;22441;-58
2022/02/21 01:22:34;;;;;;;15.60;6.20;;;;;;;2.67;73.20;98752.58;109382;1273;138928;-58
2022/02/21 01:25:06;;;;;;;22.40;6.50;;;;;;;2.64;73.49;98749.14;109518;1273;22494;-58
2022/02/21 01:27:35;;;;;;;15.30;6.10;;;;;;;2.62;73.42;98747.89;109563;1274;22386;-58
2022/02/21 01:30:04;;;;;;;12.80;5.30;;;;;;;2.58;73.63;98745.34;109397;1273;138798;-58
2022/02/21 01:32:32;;;;;;;11.60;5.20;;;;;;;2.53;73.72;98731.01;109499;1273;22394;-58
2022/02/21 01:35:00;;;;;;;14.00;5.20;;;;;;;2.53;74.00;98720.75;109457;1272;137418;-58
2022/02/21 01:37:29;;;;;;;10.20;4.80;;;;;;;2.51;74.06;98723.50;109537;1272;22467;-58
2022/02/21 01:39:57;;;;;;;10.00;4.90;;;;;;;2.49;74.17;98735.38;109482;1273;23683;-58
2022/02/21 01:42:26;;;;;;;8.50;4.50;;;;;;;2.47;74.17;98737.52;109357;1273;137599;-58
2022/02/21 01:44:53;;;;;;;6.50;3.60;;;;;;;2.44;74.48;98736.07;109505;1272;23908;-58
2022/02/21 01:47:22;;;;;;;6.70;3.80;;;;;;;2.43;74.51;98730.75;109395;1273;138818;-58
2022/02/21 01:49:51;;;;;;;8.40;4.40;;;;;;;2.41;74.60;98725.07;109473;1273;22582;-58
2022/02/21 01:52:19;;;;;;;8.40;5.50;;;;;;;2.41;74.65;98728.00;109532;1273;22498;-58
2022/02/21 01:54:50;;;;;;;11.60;6.10;;;;;;;2.40;74.74;98731.16;109392;1273;138186;-58
2022/02/21 01:57:18;;;;;;;12.90;5.60;;;;;;;2.39;74.78;98723.23;109504;1273;22447;-57
2022/02/21 01:59:45;;;;;;;13.90;5.90;;;;;;;2.37;74.90;98724.02;109360;1274;138766;-58
2022/02/21 02:02:14;;;;;;;12.20;6.00;;;;;;;2.35;74.87;98718.67;109509;1272;22438;-58
2022/02/21 02:04:43;;;;;;;14.10;7.30;;;;;;;2.32;74.74;98715.48;109410;1273;138472;-59
2022/02/21 02:07:11;;;;;;;15.40;6.90;;;;;;;2.29;74.84;98715.04;109401;1273;23774;-59
2022/02/21 02:09:52;;;;;;;11.20;6.10;;;;;;;2.24;74.83;98712.52;109278;1274;23231;-59
2022/02/21 02:12:19;;;;;;;11.50;5.20;;;;;;;2.18;74.76;98716.30;109379;1273;138672;-58
2022/02/21 02:14:49;;;;;;;6.70;3.90;;;;;;;2.12;74.66;98715.02;109436;1273;22493;-58
2022/02/21 02:17:17;;;;;;;11.70;4.40;;;;;;;2.09;74.75;98717.11;109421;1272;138322;-58
2022/02/21 02:19:46;;;;;;;9.20;4.50;;;;;;;2.05;74.96;98716.61;109322;1273;263581;-58
2022/02/21 02:23:14;;;;;;;8.00;4.50;;;;;;;2.01;75.03;98714.10;101589;1309;545164;-59
2022/02/21 02:25:42;;;;;;;10.20;4.30;;;;;;;1.95;75.43;98708.95;103531;1287;25284;-59
2022/02/21 02:28:10;;;;;;;7.10;4.40;;;;;;;1.92;75.38;98714.31;103861;1286;24417;-59
2022/02/21 02:30:38;;;;;;;8.50;4.50;;;;;;;1.89;75.46;98716.77;103635;1290;138813;-59
2022/02/21 02:33:06;;;;;;;9.50;4.90;;;;;;;1.87;75.79;98717.84;103626;1289;22564;-59
2022/02/21 02:35:34;;;;;;;12.30;6.40;;;;;;;1.84;75.69;98722.22;103750;1287;138631;-59
2022/02/21 02:38:02;;;;;;;12.40;6.40;;;;;;;1.81;75.82;98718.14;103777;1286;153005;-59
2022/02/21 02:40:33;;;;;;;17.50;7.40;;;;;;;1.78;76.00;98722.76;109130;1274;138410;-60
2022/02/21 02:43:02;;;;;;;11.30;6.60;;;;;;;1.73;75.87;98720.79;109240;1276;22545;-59
2022/02/21 02:45:29;;;;;;;14.20;6.90;;;;;;;1.68;75.89;98719.51;109242;1276;23323;-59
2022/02/21 02:47:57;;;;;;;15.20;7.40;;;;;;;1.60;75.89;98716.47;109214;1274;136826;-59
2022/02/21 02:50:25;;;;;;;19.30;9.10;;;;;;;1.52;75.93;98708.63;109344;1274;23615;-59
2022/02/21 02:52:53;;;;;;;20.90;8.60;;;;;;;1.43;75.76;98702.70;109240;1274;138760;-59
2022/02/21 02:55:21;;;;;;;18.40;8.60;;;;;;;1.35;76.06;98702.98;109332;1274;23182;-60
2022/02/21 02:57:49;;;;;;;13.90;7.00;;;;;;;1.29;76.56;98705.09;109337;1274;22230;-60
2022/02/21 03:00:17;;;;;;;15.60;7.60;;;;;;;1.24;76.60;98703.52;109201;1274;137605;-59
2022/02/21 03:02:45;;;;;;;17.90;7.60;;;;;;;1.17;76.57;98698.23;109368;1275;22494;-59
2022/02/21 03:05:13;;;;;;;16.30;8.20;;;;;;;1.13;77.05;98698.34;109199;1274;138271;-59
2022/02/21 03:07:41;;;;;;;15.30;6.90;;;;;;;1.10;77.27;98698.84;109328;1274;22455;-59
2022/02/21 03:10:09;;;;;;;14.80;6.40;;;;;;;1.08;77.47;98694.84;109369;1275;22514;-59
2022/02/21 03:12:53;;;;;;;13.90;7.50;;;;;;;1.08;77.69;98692.58;109273;1273;139098;-59
2022/02/21 03:15:21;;;;;;;11.30;6.70;;;;;;;1.08;78.02;98688.23;109312;1275;22504;-59
2022/02/21 03:17:49;;;;;;;12.70;6.40;;;;;;;1.08;78.00;98686.52;109225;1276;137996;-60
2022/02/21 03:20:17;;;;;;;12.00;6.20;;;;;;;1.06;78.31;98686.73;109344;1275;23186;-59
2022/02/21 03:22:45;;;;;;;12.70;6.00;;;;;;;1.06;78.66;98690.07;109188;1276;137771;-59
2022/02/21 03:25:14;;;;;;;8.00;4.70;;;;;;;1.08;78.69;98685.39;109335;1274;23722;-59
2022/02/21 03:27:43;;;;;;;9.90;5.70;;;;;;;1.09;78.95;98674.13;109352;1274;22518;-59
2022/02/21 03:30:12;;;;;;;12.10;5.80;;;;;;;1.10;78.85;98666.69;109225;1274;137529;-59
2022/02/21 03:32:40;;;;;;;9.50;5.70;;;;;;;1.09;78.91;98659.80;109271;1274;22912;-59
2022/02/21 03:35:08;;;;;;;11.00;6.10;;;;;;;1.07;79.00;98661.02;109245;1274;138005;-59
2022/02/21 03:37:36;;;;;;;11.40;6.20;;;;;;;1.05;78.86;98661.05;109367;1276;22445;-60
2022/02/21 03:40:05;;;;;;;11.80;6.50;;;;;;;1.05;79.00;98655.54;107604;1276;25531;-59
2022/02/21 03:42:34;;;;;;;14.60;6.10;;;;;;;1.06;79.20;98653.59;104746;1277;137566;-59
2022/02/21 03:45:03;;;;;;;9.70;5.70;;;;;;;1.07;79.31;98647.64;104871;1277;24238;-59
2022/02/21 03:47:31;;;;;;;15.40;6.40;;;;;;;1.08;79.70;98642.68;109128;1275;137382;-59
2022/02/21 03:49:59;;;;;;;11.70;6.40;;;;;;;1.10;79.82;98639.00;109319;1274;22252;-59
2022/02/21 03:52:27;;;;;;;10.30;5.60;;;;;;;1.12;79.68;98644.02;109170;1277;22554;-59
2022/02/21 03:54:54;;;;;;;10.10;6.30;;;;;;;1.15;79.83;98648.77;109233;1274;137323;-59
2022/02/21 03:57:22;;;;;;;11.50;5.70;;;;;;;1.16;79.86;98651.11;109310;1274;23226;-60
2022/02/21 03:59:50;;;;;;;10.70;5.00;;;;;;;1.19;79.97;98647.83;109157;1275;138158;-59
2022/02/21 04:02:18;;;;;;;12.30;5.80;;;;;;;1.24;80.06;98643.80;109339;1275;22528;-60
2022/02/21 04:04:46;;;;;;;17.10;5.70;;;;;;;1.25;79.91;98642.17;109219;1274;138550;-59
2022/02/21 04:07:15;;;;;;;8.20;5.00;;;;;;;1.25;79.62;98640.04;109355;1274;23688;-59
2022/02/21 04:09:42;;;;;;;11.40;6.40;;;;;;;1.26;79.76;98634.74;109322;1275;22286;-60
2022/02/21 04:12:11;;;;;;;14.40;5.90;;;;;;;1.25;79.62;98628.38;109230;1274;138522;-59
2022/02/21 04:14:39;;;;;;;13.00;7.50;;;;;;;1.25;79.63;98626.38;109347;1274;23278;-59
2022/02/21 04:17:07;;;;;;;12.30;5.80;;;;;;;1.23;79.79;98622.55;109220;1274;139494;-60
2022/02/21 04:19:42;;;;;;;9.90;5.50;;;;;;;1.22;79.86;98622.42;109348;1275;22501;-59
2022/02/21 04:22:11;;;;;;;10.80;5.90;;;;;;;1.22;79.97;98617.97;109294;1275;22426;-60
2022/02/21 04:24:39;;;;;;;11.20;4.80;;;;;;;1.19;79.89;98611.67;109261;1275;137346;-60
2022/02/21 04:27:07;;;;;;;10.00;5.30;;;;;;;1.21;79.86;98609.05;109364;1275;22651;-59
2022/02/21 04:29:35;;;;;;;11.00;5.60;;;;;;;1.21;79.94;98602.45;109255;1274;139320;-59
2022/02/21 04:32:07;;;;;;;10.80;5.40;;;;;;;1.22;80.15;98598.56;109336;1275;22457;-59
2022/02/21 04:34:35;;;;;;;9.60;5.10;;;;;;;1.24;80.26;98597.55;109225;1274;138809;-59
2022/02/21 04:37:03;;;;;;;11.90;5.40;;;;;;;1.26;80.37;98593.00;109358;1275;22417;-59
2022/02/21 04:39:31;;;;;;;15.90;6.50;;;;;;;1.28;80.39;98597.27;109345;1274;22517;-61
2022/02/21 04:41:59;;;;;;;12.10;6.20;;;;;;;1.32;80.51;98595.81;109209;1275;138177;-61
2022/02/21 04:44:27;;;;;;;13.60;6.00;;;;;;;1.36;80.40;98599.05;109337;1274;22579;-61
2022/02/21 04:46:55;;;;;;;14.10;6.10;;;;;;;1.40;80.36;98595.42;109184;1276;139411;-61
2022/02/21 04:49:24;;;;;;;15.10;5.60;;;;;;;1.44;80.41;98595.21;109351;1275;22487;-61
2022/02/21 04:51:52;;;;;;;13.40;6.60;;;;;;;1.47;80.41;98597.77;109361;1275;22467;-61
2022/02/21 04:54:19;;;;;;;17.70;7.00;;;;;;;1.50;80.38;98597.34;109243;1276;136736;-61
2022/02/21 04:56:47;;;;;;;12.80;7.20;;;;;;;1.52;80.17;98595.05;109323;1274;22421;-61
2022/02/21 04:59:15;;;;;;;12.70;6.30;;;;;;;1.55;80.21;98590.45;109236;1275;138704;-61
2022/02/21 05:01:43;;;;;;;13.80;7.10;;;;;;;1.53;80.11;98581.13;109364;1276;22401;-61
2022/02/21 05:04:11;;;;;;;15.50;7.00;;;;;;;1.60;79.98;98586.12;109300;1274;22482;-61
2022/02/21 05:06:39;;;;;;;15.00;6.70;;;;;;;1.62;79.89;98579.27;109219;1275;138305;-61
2022/02/21 05:09:07;;;;;;;16.20;7.10;;;;;;;1.64;79.97;98578.23;109354;1274;22573;-61
2022/02/21 05:11:46;;;;;;;14.40;6.60;;;;;;;1.68;79.63;98575.75;109225;1274;139080;-61
2022/02/21 05:14:14;;;;;;;12.00;6.70;;;;;;;1.71;79.64;98575.32;109369;1275;23635;-61
2022/02/21 05:16:41;;;;;;;12.90;6.50;;;;;;;1.75;79.55;98576.33;109263;1275;139759;-61
2022/02/21 05:19:09;;;;;;;11.40;6.30;;;;;;;1.78;79.50;98574.80;109352;1274;22425;-61
2022/02/21 05:21:37;;;;;;;11.50;6.70;;;;;;;1.82;79.50;98574.27;109325;1275;23240;-61
2022/02/21 05:24:05;;;;;;;11.30;6.20;;;;;;;1.85;79.18;98577.22;109210;1275;137887;-62
2022/02/21 05:26:33;;;;;;;12.80;6.40;;;;;;;1.88;79.14;98574.06;109362;1274;22546;-61
2022/02/21 05:29:01;;;;;;;14.50;6.60;;;;;;;1.89;79.01;98573.89;109221;1274;137212;-61
2022/02/21 05:31:30;;;;;;;13.00;7.40;;;;;;;1.92;78.88;98572.03;109305;1274;22388;-62
2022/02/21 05:33:58;;;;;;;16.10;6.70;;;;;;;1.94;78.75;98571.67;109355;1274;22542;-61
2022/02/21 05:36:26;;;;;;;11.50;6.50;;;;;;;1.96;78.63;98567.32;109219;1274;137400;-61
2022/02/21 05:38:54;;;;;;;14.10;6.80;;;;;;;1.99;78.47;98567.83;109337;1274;22695;-61
2022/02/21 05:41:22;;;;;;;12.20;6.80;;;;;;;2.01;78.33;98572.30;109266;1274;139307;-55
2022/02/21 05:43:50;;;;;;;11.40;5.80;;;;;;;2.04;78.15;98568.93;109365;1275;23374;-55
2022/02/21 05:46:19;;;;;;;11.20;5.80;;;;;;;2.09;78.00;98567.03;109374;1274;22453;-55
2022/02/21 05:48:46;;;;;;;10.80;5.80;;;;;;;2.14;77.99;98567.18;109275;1274;138777;-55
2022/02/21 05:51:14;;;;;;;12.40;6.80;;;;;;;2.19;77.81;98564.20;109395;1274;23624;-55
2022/02/21 05:53:46;;;;;;;16.70;6.90;;;;;;;2.25;77.75;98558.34;109261;1274;138766;-55
2022/02/21 05:56:14;;;;;;;15.70;7.10;;;;;;;2.31;77.40;98551.79;109394;1274;22476;-55
2022/02/21 05:58:42;;;;;;;16.20;6.10;;;;;;;2.35;77.29;98551.40;109263;1274;138499;-55
2022/02/21 06:01:10;;;;;;;13.30;6.20;;;;;;;2.39;77.10;98552.91;109408;1274;22420;-55
2022/02/21 06:03:42;;;;;;;10.80;6.80;;;;;;;2.45;76.84;98548.00;109387;1274;22552;-55
2022/02/21 06:06:10;;;;;;;14.30;5.90;;;;;;;2.48;76.67;98547.36;109268;1274;138086;-55
2022/02/21 06:08:38;;;;;;;9.70;6.10;;;;;;;2.52;76.41;98546.29;109416;1274;22515;-55
2022/02/21 06:11:06;;;;;;;14.90;6.50;;;;;;;2.54;76.11;98539.64;109319;1274;136993;-55
2022/02/21 06:13:41;;;;;;;15.60;6.50;;;;;;;2.56;75.96;98537.66;109360;1274;22644;-55
2022/02/21 06:16:09;;;;;;;13.70;7.30;;;;;;;2.60;75.77;98533.71;109407;1273;22499;-55
2022/02/21 06:18:37;;;;;;;11.30;6.30;;;;;;;2.65;75.60;98531.73;109303;1273;138879;-55
2022/02/21 06:21:05;;;;;;;10.40;5.80;;;;;;;2.70;75.22;98527.23;109334;1274;23261;-55
2022/02/21 06:23:33;;;;;;;12.30;5.60;;;;;;;2.76;75.05;98524.14;109308;1274;139506;-55
2022/02/21 06:26:02;;;;;;;9.60;5.90;;;;;;;2.80;74.85;98520.17;109416;1274;22241;-55
2022/02/21 06:28:31;;;;;;;12.90;7.40;;;;;;;2.85;74.52;98512.61;109372;1274;23650;-55
2022/02/21 06:30:58;;;;;;;13.00;6.40;;;;;;;2.89;74.30;98507.89;109236;1274;138058;-55
2022/02/21 06:33:26;;;;;;;12.30;6.60;;;;;;;2.91;74.11;98496.90;109398;1274;22512;-55
2022/02/21 06:35:54;;;;;;;13.80;6.20;;;;;;;2.96;73.73;98498.42;109308;1273;137639;-55
2022/02/21 06:38:22;;;;;;;13.60;6.00;;;;;;;2.99;73.43;98501.61;109384;1274;22257;-55
2022/02/21 06:40:50;;;;;;;10.80;5.30;;;;;;;3.02;73.11;98499.98;109269;1274;137235;-55
2022/02/21 06:43:20;;;;;;;15.30;5.70;;;;;;;3.06;72.95;98497.50;109386;1275;22436;-55
2022/02/21 06:45:48;;;;;;;10.20;5.20;;;;;;;3.09;72.62;98494.41;109343;1274;22573;-55
2022/02/21 06:48:16;;;;;;;16.30;5.90;;;;;;;3.12;72.54;98489.98;109279;1274;139635;-55
2022/02/21 06:50:44;;;;;;;12.00;5.40;;;;;;;3.17;72.25;98488.61;109334;1276;22524;-55
2022/02/21 06:53:12;;;;;;;14.30;5.00;;;;;;;3.20;72.36;98493.42;109309;1274;138214;-55
2022/02/21 06:55:40;;;;;;;9.10;4.60;;;;;;;3.24;72.08;98491.95;109386;1274;22412;-55
2022/02/21 06:58:11;;;;;;;13.40;5.90;;;;;;;3.28;71.96;98490.81;109405;1273;22514;-55
2022/02/21 07:00:39;;;;;;;9.50;4.60;;;;;;;3.32;71.94;98483.89;109301;1274;137382;-55
2022/02/21 07:03:07;;;;;;;10.90;5.40;;;;;;;3.37;71.58;98485.48;109344;1274;23520;-55
2022/02/21 07:05:35;;;;;;;13.30;5.30;;;;;;;3.42;71.48;98479.14;109234;1274;137683;-55
2022/02/21 07:08:03;;;;;;;14.60;5.40;;;;;;;3.47;71.35;98477.91;109407;1274;23156;-55
2022/02/21 07:10:31;;;;;;;12.50;5.60;;;;;;;3.54;71.37;98476.16;109396;1273;22485;-55
2022/02/21 07:12:59;;;;;;;12.50;5.70;;;;;;;3.60;71.02;98473.36;109308;1274;137217;-55
2022/02/21 07:15:28;;;;;;;10.90;5.40;;;;;;;3.64;70.53;98470.80;109350;1275;22558;-55
2022/02/21 07:17:57;;;;;;;9.30;5.10;;;;;;;3.64;70.39;98459.13;109305;1274;138275;-55
2022/02/21 07:20:26;;;;;;;11.00;4.80;;;;;;;3.74;70.27;98465.84;109382;1274;23256;-55
2022/02/21 07:22:55;;;;;;;13.00;5.20;;;;;;;3.81;70.18;98464.73;109306;1271;138492;-55
2022/02/21 07:25:24;;;;;;;10.00;4.90;;;;;;;3.89;69.60;98463.40;109333;1276;22408;-55
2022/02/21 07:27:52;;;;;;;11.00;4.50;;;;;;;3.97;69.44;98465.31;109381;1274;22424;-55
2022/02/21 07:30:26;;;;;;;10.30;5.40;;;;;;;4.04;69.62;98463.06;109169;1274;138277;-55
2022/02/21 07:32:55;;;;;;;8.60;4.20;;;;;;;4.11;69.08;98463.41;109379;1274;23434;-55
2022/02/21 07:35:25;;;;;;;11.90;4.90;;;;;;;4.18;68.71;98464.56;109311;1274;137377;-55
2022/02/21 07:37:53;;;;;;;10.70;4.50;;;;;;;4.24;68.48;98460.77;109422;1274;22482;-55
2022/02/21 07:40:21;;;;;;;11.80;5.60;;;;;;;4.29;68.26;98460.34;107092;1274;24016;-55
2022/02/21 07:42:51;;;;;;;8.40;4.30;;;;;;;4.34;68.08;98461.88;104814;1276;137300;-55
2022/02/21 07:45:20;;;;;;;10.20;4.90;;;;;;;4.39;67.75;98461.09;109276;1275;23461;-55
2022/02/21 07:47:52;;;;;;;8.50;4.30;;;;;;;4.42;67.13;98455.97;109271;1274;137923;-55
2022/02/21 07:50:20;;;;;;;7.30;3.50;;;;;;;4.45;67.04;98455.05;109383;1274;23649;-55
2022/02/21 07:52:48;;;;;;;8.40;4.90;;;;;;;4.49;66.87;98447.66;109290;1274;137345;-55
2022/02/21 07:55:17;;;;;;;9.00;3.90;;;;;;;4.52;66.77;98444.38;109387;1274;22424;-55
2022/02/21 07:57:45;;;;;;;8.10;4.30;;;;;;;4.55;66.28;98445.88;109386;1274;22479;-55
2022/02/21 08:00:14;;;;;;;8.40;4.20;;;;;;;4.58;66.49;98446.98;109333;1273;138112;-55
2022/02/21 08:02:48;;;;;;;8.10;3.90;;;;;;;4.58;66.17;98437.40;109362;1274;22444;-56
2022/02/21 08:05:16;;;;;;;9.50;4.80;;;;;;;4.67;66.06;98443.35;109306;1274;137174;-55
2022/02/21 08:07:44;;;;;;;10.80;4.30;;;;;;;4.71;65.83;98442.80;109398;1274;23106;-55
2022/02/21 08:10:13;;;;;;;11.60;4.90;;;;;;;4.76;65.49;98437.89;109424;1274;22454;-55
2022/02/21 08:12:48;;;;;;;10.30;5.10;;;;;;;4.80;65.52;98436.98;109274;1274;138113;-55
2022/02/21 08:15:16;;;;;;;10.90;5.10;;;;;;;4.85;65.31;98438.95;109397;1274;23511;-55
2022/02/21 08:17:45;;;;;;;8.90;5.00;;;;;;;4.90;65.07;98433.95;109319;1273;137504;-55
2022/02/21 08:20:15;;;;;;;9.90;5.00;;;;;;;4.94;64.83;98429.94;109396;1273;22522;-55
2022/02/21 08:22:43;;;;;;;10.10;4.90;;;;;;;4.97;64.97;98430.48;109269;1274;137962;-55
2022/02/21 08:25:11;;;;;;;9.00;5.00;;;;;;;5.01;64.77;98431.14;109407;1274;23143;-55
2022/02/21 08:27:39;;;;;;;12.30;4.80;;;;;;;5.04;64.67;98424.00;109409;1274;22476;-55
2022/02/21 08:30:12;;;;;;;11.60;5.40;;;;;;;5.06;64.33;98426.98;109302;1274;137642;-55
2022/02/21 08:32:40;;;;;;;12.50;5.90;;;;;;;5.08;63.89;98422.63;109413;1274;22484;-55
2022/02/21 08:35:08;;;;;;;13.50;6.60;;;;;;;5.09;63.98;98424.33;109329;1274;137613;-55
2022/02/21 08:37:37;;;;;;;12.10;5.30;;;;;;;5.12;64.16;98422.92;109296;1274;22590;-55
2022/02/21 08:40:06;;;;;;;10.30;5.50;;;;;;;5.16;63.80;98423.46;109408;1272;22464;-56
2022/02/21 08:42:35;;;;;;;14.80;5.70;;;;;;;5.19;63.90;98420.15;109297;1274;139149;-56
2022/02/21 08:45:04;;;;;;;9.90;5.00;;;;;;;5.24;63.55;98419.83;109423;1274;22434;-56
2022/02/21 08:47:33;;;;;;;11.80;4.80;;;;;;;5.28;63.51;98419.23;109256;1273;137005;-56
2022/02/21 08:50:01;;;;;;;8.50;4.80;;;;;;;5.34;63.20;98420.73;109381;1274;22593;-56
2022/02/21 08:52:32;;;;;;;11.80;5.30;;;;;;;5.40;62.98;98416.91;109396;1274;22462;-56
2022/02/21 08:55:00;;;;;;;11.70;5.10;;;;;;;5.45;63.04;98413.63;109280;1274;137891;-56
2022/02/21 08:57:29;;;;;;;11.00;5.20;;;;;;;5.47;63.40;98398.99;109348;1274;22461;-57
2022/02/21 08:59:57;;;;;;;7.80;4.40;;;;;;;5.58;62.77;98397.61;109299;1274;137844;-56
2022/02/21 09:02:25;;;;;;;13.60;5.90;;;;;;;5.64;62.75;98382.22;109380;1274;22872;-57
2022/02/21 09:05:14;;;;;;;13.60;5.10;;;;;;;5.73;62.48;98374.59;109289;1274;137362;-56
2022/02/21 09:07:42;;;;;;;10.70;5.60;;;;;;;5.79;62.23;98371.45;109405;1274;23139;-56
2022/02/21 09:10:10;;;;;;;8.30;4.60;;;;;;;5.86;61.99;98371.59;109347;1274;22424;-56
2022/02/21 09:12:38;;;;;;;13.00;4.80;;;;;;;5.92;61.48;98369.13;109303;1274;139139;-56
2022/02/21 09:15:06;;;;;;;10.80;4.80;;;;;;;5.99;61.18;98371.09;109414;1274;22439;-56
2022/02/21 09:17:34;;;;;;;15.60;4.90;;;;;;;6.03;61.19;98368.39;109308;1274;138080;-56
2022/02/21 09:20:03;;;;;;;11.10;4.90;;;;;;;6.08;61.10;98368.67;109377;1274;22282;-56
2022/02/21 09:22:31;;;;;;;12.10;5.60;;;;;;;6.12;60.94;98364.65;109399;1274;22571;-56
2022/02/21 09:24:59;;;;;;;10.00;5.20;;;;;;;6.14;60.55;98358.73;109287;1274;138466;-56
2022/02/21 09:27:27;;;;;;;13.50;5.00;;;;;;;6.16;60.29;98353.51;109427;1274;22456;-57
2022/02/21 09:29:55;;;;;;;12.80;5.40;;;;;;;6.18;59.95;98351.20;109248;1274;138493;-57
2022/02/21 09:32:23;;;;;;;9.60;5.00;;;;;;;6.20;59.98;98351.38;109357;1273;22399;-56
2022/02/21 09:34:52;;;;;;;8.00;4.30;;;;;;;6.22;59.79;98351.60;109288;1274;137167;-57
2022/02/21 09:37:20;;;;;;;12.60;4.40;;;;;;;6.23;59.74;98346.52;109417;1274;22440;-57
2022/02/21 09:39:49;;;;;;;11.40;5.10;;;;;;;6.28;59.50;98345.77;108066;1274;25427;-56
2022/02/21 09:42:16;;;;;;;14.70;5.40;;;;;;;6.32;59.88;98346.88;104823;1274;137162;-56
2022/02/21 09:44:46;;;;;;;11.90;5.00;;;;;;;6.36;59.46;98348.02;104883;1274;22723;-56
2022/02/21 09:47:15;;;;;;;10.10;5.00;;;;;;;6.40;59.32;98345.62;109291;1274;137395;-56
2022/02/21 09:49:43;;;;;;;11.10;5.20;;;;;;;6.43;59.16;98343.15;109374;1273;22545;-56
2022/02/21 09:52:12;;;;;;;10.00;4.20;;;;;;;6.44;59.18;98340.14;109430;1274;22590;-57
2022/02/21 09:54:40;;;;;;;10.60;4.30;;;;;;;6.47;58.93;98335.61;109278;1274;137174;-56
2022/02/21 09:57:08;;;;;;;8.00;4.40;;;;;;;6.48;58.49;98333.90;109361;1274;23725;-57
2022/02/21 09:59:37;;;;;;;10.00;4.60;;;;;;;6.51;58.56;98328.64;109289;1274;138069;-57
2022/02/21 10:02:05;;;;;;;7.70;4.00;;;;;;;6.53;58.75;98324.23;109317;1274;22450;-57
2022/02/21 10:04:33;;;;;;;6.30;3.80;;;;;;;6.55;58.50;98321.27;109387;1274;22480;-56
2022/02/21 10:07:01;;;;;;;5.30;3.10;;;;;;;6.57;58.36;98324.05;109310;1274;137812;-57
2022/02/21 10:09:29;;;;;;;7.20;3.60;;;;;;;6.58;58.28;98324.11;109432;1274;23268;-56
2022/02/21 10:11:59;;;;;;;6.90;3.80;;;;;;;6.58;57.92;98320.36;109261;1274;139370;-56
2022/02/21 10:14:29;;;;;;;9.70;4.10;;;;;;;6.58;58.53;98316.58;109397;1274;22569;-57
2022/02/21 10:16:58;;;;;;;7.10;3.80;;;;;;;6.60;58.75;98316.10;109222;1275;139248;-57
2022/02/21 10:19:30;;;;;;;10.90;4.10;;;;;;;6.61;58.56;98318.13;109219;1276;23669;-56
2022/02/21 10:22:01;;;;;;;9.70;3.40;;;;;;;6.63;59.10;98310.72;109322;1274;22532;-57
2022/02/21 10:24:40;;;;;;;9.00;3.80;;;;;;;6.64;58.88;98302.96;109067;1276;137965;-56
2022/02/21 10:27:16;;;;;;;10.40;4.90;;;;;;;6.67;59.34;98298.38;109353;1274;23219;-57
2022/02/21 10:29:48;;;;;;;11.80;4.90;;;;;;;6.71;59.19;98295.43;109147;1276;138183;-56
2022/02/21 10:32:18;;;;;;;9.60;4.50;;;;;;;6.76;59.04;98289.02;109115;1276;23728;-57
2022/02/21 10:34:46;;;;;;;7.80;4.10;;;;;;;6.80;59.33;98286.74;109196;1274;137595;-56
2022/02/21 10:37:19;;;;;;;12.40;4.10;;;;;;;6.83;59.09;98288.29;109303;1274;22504;-56
2022/02/21 10:39:48;;;;;;;9.90;4.70;;;;;;;6.87;59.12;98292.75;107927;1277;22615;-55
2022/02/21 10:42:25;;;;;;;7.20;3.70;;;;;;;6.90;58.98;98290.02;104497;1279;139076;-55
2022/02/21 10:44:53;;;;;;;9.00;4.50;;;;;;;6.90;58.64;98286.70;104830;1277;25151;-55
2022/02/21 10:47:22;;;;;;;9.20;4.30;;;;;;;6.92;58.53;98291.21;104762;1274;136979;-55
2022/02/21 10:49:58;;;;;;;10.10;4.50;;;;;;;6.90;58.75;98289.68;104805;1274;25612;-55
2022/02/21 10:52:30;;;;;;;7.80;4.50;;;;;;;6.91;58.84;98288.28;109431;1274;23641;-55
2022/02/21 10:54:58;;;;;;;8.40;4.40;;;;;;;6.92;59.11;98289.04;109319;1274;136891;-55
2022/02/21 10:57:28;;;;;;;10.40;4.40;;;;;;;6.94;58.70;98286.11;109396;1274;23393;-55
2022/02/21 10:59:56;;;;;;;8.90;4.60;;;;;;;6.96;58.90;98283.89;109222;1276;137689;-55
2022/02/21 11:02:24;;;;;;;9.70;4.30;;;;;;;6.98;58.98;98279.80;109408;1274;22483;-55
2022/02/21 11:04:52;;;;;;;6.70;4.30;;;;;;;7.00;58.71;98280.40;109293;1274;137878;-55
2022/02/21 11:07:21;;;;;;;8.60;3.90;;;;;;;7.01;58.35;98274.61;109258;1274;22490;-55
2022/02/21 11:09:50;;;;;;;8.60;4.40;;;;;;;7.01;58.48;98269.04;109253;1274;22548;-55
2022/02/21 11:12:20;;;;;;;8.60;4.10;;;;;;;6.99;58.39;98266.43;109131;1276;137397;-55
2022/02/21 11:14:48;;;;;;;10.20;4.90;;;;;;;6.98;58.52;98269.18;109333;1274;22546;-55
2022/02/21 11:17:16;;;;;;;8.40;4.50;;;;;;;6.96;58.62;98268.52;109196;1274;138490;-55
2022/02/21 11:19:45;;;;;;;9.20;4.00;;;;;;;6.95;58.42;98266.39;109376;1274;22434;-55
2022/02/21 11:22:12;;;;;;;11.50;4.70;;;;;;;6.94;58.78;98259.45;109291;1274;22484;-55
2022/02/21 11:24:46;;;;;;;9.40;4.70;;;;;;;6.90;58.76;98250.48;109054;1277;138056;-55
2022/02/21 11:27:50;;;;;;;7.80;4.60;;;;;;;6.91;58.64;98256.45;109147;1274;22458;-55
2022/02/21 11:30:21;;;;;;;7.10;3.60;;;;;;;6.88;58.66;98259.56;109053;1274;137955;-55
2022/02/21 11:33:06;;;;;;;8.30;3.60;;;;;;;6.85;58.65;98261.98;109211;1276;22422;-55